Bentley, Michigan
Current Conditions -  °F | °C
As of 2:34 PM on Thursday 18 Dec 2014 (Local Time) from KIKW Reporting Station
Overcast Overcast  
Wind Chill: 24°   Ceiling: 1300
Heat Index: 30°   Visibility: 10mi
Dew Point: 24°   Wind: 6mph
Humidity: 79%   Direction: 320°NW
Pressure: 30.16"   Gusts: NA
Location:  43.95°N, 84.13°W
Report Text: KIKW 181934Z AUTO 32005KT 10SM OVC013 M01/M04 A3016 RMK AO2 T10131045
Loading
Personal Weather Stations






























Interactive Weather Map New forecast layout! Learn more

10-Day Weather Forecast

Advertisements
Track Severe Weather on mobile